sensor_id;sensor_type;location;lat;lon;timestamp;pressure;altitude;pressure_sealevel;temperature;humidity
35248;BME280;21380;52.194;20.520;2023-07-28T00:01:39;99624.22;;;22.48;59.25
35248;BME280;21380;52.194;20.520;2023-07-28T00:04:05;99639.81;;;22.58;59.19
35248;BME280;21380;52.194;20.520;2023-07-28T00:06:33;99631.03;;;22.57;59.26
35248;BME280;21380;52.194;20.520;2023-07-28T00:08:59;99614.63;;;22.47;59.27
35248;BME280;21380;52.194;20.520;2023-07-28T00:11:26;99612.94;;;22.45;59.35
35248;BME280;21380;52.194;20.520;2023-07-28T00:13:51;99625.78;;;22.57;59.27
35248;BME280;21380;52.194;20.520;2023-07-28T00:16:17;99608.44;;;22.48;59.42
35248;BME280;21380;52.194;20.520;2023-07-28T00:18:43;99625.81;;;22.56;59.20
35248;BME280;21380;52.194;20.520;2023-07-28T00:21:09;99616.28;;;22.51;59.53
35248;BME280;21380;52.194;20.520;2023-07-28T00:23:35;99605.81;;;22.48;59.22
35248;BME280;21380;52.194;20.520;2023-07-28T00:26:01;99618.81;;;22.56;59.13
35248;BME280;21380;52.194;20.520;2023-07-28T00:28:26;99617.09;;;22.55;59.47
35248;BME280;21380;52.194;20.520;2023-07-28T00:30:52;99624.97;;;22.55;59.55
35248;BME280;21380;52.194;20.520;2023-07-28T00:33:18;99614.44;;;22.55;59.24
35248;BME280;21380;52.194;20.520;2023-07-28T00:35:44;99599.72;;;22.48;59.12
35248;BME280;21380;52.194;20.520;2023-07-28T00:38:10;99615.34;;;22.54;59.63
35248;BME280;21380;52.194;20.520;2023-07-28T00:40:36;99607.53;;;22.51;59.31
35248;BME280;21380;52.194;20.520;2023-07-28T00:43:02;99610.94;;;22.55;59.29
35248;BME280;21380;52.194;20.520;2023-07-28T00:45:29;99606.63;;;22.54;59.43
35248;BME280;21380;52.194;20.520;2023-07-28T00:47:56;99603.97;;;22.54;59.57
35248;BME280;21380;52.194;20.520;2023-07-28T00:50:26;99601.34;;;22.54;59.42
35248;BME280;21380;52.194;20.520;2023-07-28T00:52:52;99605.72;;;22.53;59.42
35248;BME280;21380;52.194;20.520;2023-07-28T00:55:18;99590.97;;;22.47;59.64
35248;BME280;21380;52.194;20.520;2023-07-28T00:57:44;99571.88;;;22.39;59.45
35248;BME280;21380;52.194;20.520;2023-07-28T01:00:11;99596.09;;;22.54;59.36
35248;BME280;21380;52.194;20.520;2023-07-28T01:02:37;99580.34;;;22.54;59.40
35248;BME280;21380;52.194;20.520;2023-07-28T01:05:04;99583.91;;;22.49;59.46
35248;BME280;21380;52.194;20.520;2023-07-28T01:10:37;99581.22;;;22.53;59.24
35248;BME280;21380;52.194;20.520;2023-07-28T01:13:04;99574.19;;;22.53;59.56
35248;BME280;21380;52.194;20.520;2023-07-28T01:15:30;99573.47;;;22.46;59.40
35248;BME280;21380;52.194;20.520;2023-07-28T01:17:55;99571.66;;;22.48;59.47
35248;BME280;21380;52.194;20.520;2023-07-28T01:20:24;99576.91;;;22.48;59.60
35248;BME280;21380;52.194;20.520;2023-07-28T01:25:36;99564.69;;;22.47;59.29
35248;BME280;21380;52.194;20.520;2023-07-28T01:28:05;99580.38;;;22.50;59.42
35248;BME280;21380;52.194;20.520;2023-07-28T01:30:32;99575.13;;;22.50;59.15
35248;BME280;21380;52.194;20.520;2023-07-28T01:32:57;99560.38;;;22.43;59.65
35248;BME280;21380;52.194;20.520;2023-07-28T01:35:25;99559.44;;;22.47;59.52
35248;BME280;21380;52.194;20.520;2023-07-28T01:37:51;99564.59;;;22.50;59.61
35248;BME280;21380;52.194;20.520;2023-07-28T01:40:18;99551.69;;;22.41;59.51
35248;BME280;21380;52.194;20.520;2023-07-28T01:42:44;99557.72;;;22.46;59.59
35248;BME280;21380;52.194;20.520;2023-07-28T01:45:10;99555.13;;;22.43;59.30
35248;BME280;21380;52.194;20.520;2023-07-28T01:47:36;99561.13;;;22.50;59.41
35248;BME280;21380;52.194;20.520;2023-07-28T01:50:02;99551.59;;;22.44;59.42
35248;BME280;21380;52.194;20.520;2023-07-28T01:52:28;99551.56;;;22.46;59.54
35248;BME280;21380;52.194;20.520;2023-07-28T01:54:54;99537.66;;;22.42;59.45
35248;BME280;21380;52.194;20.520;2023-07-28T01:57:19;99557.63;;;22.49;59.66
35248;BME280;21380;52.194;20.520;2023-07-28T01:59:45;99558.50;;;22.48;59.68
35248;BME280;21380;52.194;20.520;2023-07-28T02:02:12;99557.66;;;22.48;59.72
35248;BME280;21380;52.194;20.520;2023-07-28T02:04:38;99557.72;;;22.46;59.73
35248;BME280;21380;52.194;20.520;2023-07-28T02:07:04;99558.50;;;22.48;59.59
35248;BME280;21380;52.194;20.520;2023-07-28T02:09:30;99568.22;;;22.46;59.40
35248;BME280;21380;52.194;20.520;2023-07-28T02:11:55;99553.44;;;22.41;59.50
35248;BME280;21380;52.194;20.520;2023-07-28T02:14:21;99564.69;;;22.47;59.68
35248;BME280;21380;52.194;20.520;2023-07-28T02:16:47;99562.91;;;22.48;59.63
35248;BME280;21380;52.194;20.520;2023-07-28T02:19:13;99544.69;;;22.40;59.54
35248;BME280;21380;52.194;20.520;2023-07-28T02:21:39;99560.28;;;22.48;59.44
35248;BME280;21380;52.194;20.520;2023-07-28T02:24:05;99542.03;;;22.42;59.65
35248;BME280;21380;52.194;20.520;2023-07-28T02:26:30;99557.66;;;22.48;59.72
35248;BME280;21380;52.194;20.520;2023-07-28T02:28:56;99548.94;;;22.46;59.31
35248;BME280;21380;52.194;20.520;2023-07-28T02:31:22;99555.03;;;22.48;59.37
35248;BME280;21380;52.194;20.520;2023-07-28T02:33:48;99545.41;;;22.47;59.32
35248;BME280;21380;52.194;20.520;2023-07-28T02:36:14;99539.34;;;22.45;59.89
35248;BME280;21380;52.194;20.520;2023-07-28T02:38:40;99539.31;;;22.46;59.79
35248;BME280;21380;52.194;20.520;2023-07-28T02:41:05;99531.44;;;22.46;59.56
35248;BME280;21380;52.194;20.520;2023-07-28T02:43:32;99507.22;;;22.30;59.69
35248;BME280;21380;52.194;20.520;2023-07-28T02:45:59;99515.84;;;22.37;59.76
35248;BME280;21380;52.194;20.520;2023-07-28T02:48:26;99524.53;;;22.42;59.80
35248;BME280;21380;52.194;20.520;2023-07-28T02:50:52;99508.88;;;22.36;59.75
35248;BME280;21380;52.194;20.520;2023-07-28T02:53:19;99543.69;;;22.46;59.96
35248;BME280;21380;52.194;20.520;2023-07-28T02:55:45;99545.47;;;22.45;59.57
35248;BME280;21380;52.194;20.520;2023-07-28T02:58:13;99538.56;;;22.41;59.48
35248;BME280;21380;52.194;20.520;2023-07-28T03:00:43;99526.41;;;22.34;59.76
35248;BME280;21380;52.194;20.520;2023-07-28T03:03:10;99539.34;;;22.45;59.94
35248;BME280;21380;52.194;20.520;2023-07-28T03:05:37;99528.84;;;22.45;59.47
35248;BME280;21380;52.194;20.520;2023-07-28T03:08:04;99524.56;;;22.39;59.87
35248;BME280;21380;52.194;20.520;2023-07-28T03:10:30;99533.22;;;22.44;59.68
35248;BME280;21380;52.194;20.520;2023-07-28T03:12:56;99511.53;;;22.33;59.65
35248;BME280;21380;52.194;20.520;2023-07-28T03:15:22;99533.22;;;22.44;59.83
35248;BME280;21380;52.194;20.520;2023-07-28T03:17:49;99523.59;;;22.43;59.94
35248;BME280;21380;52.194;20.520;2023-07-28T03:20:15;99514.88;;;22.43;59.66
35248;BME280;21380;52.194;20.520;2023-07-28T03:22:41;99503.59;;;22.36;59.87
35248;BME280;21380;52.194;20.520;2023-07-28T03:25:07;99514.81;;;22.44;59.87
35248;BME280;21380;52.194;20.520;2023-07-28T03:27:33;99513.09;;;22.43;59.81
35248;BME280;21380;52.194;20.520;2023-07-28T03:29:59;99514.00;;;22.42;60.06
35248;BME280;21380;52.194;20.520;2023-07-28T03:32:25;99520.97;;;22.45;59.96
35248;BME280;21380;52.194;20.520;2023-07-28T03:34:51;99496.63;;;22.35;60.03
35248;BME280;21380;52.194;20.520;2023-07-28T03:37:17;99515.72;;;22.43;59.78
35248;BME280;21380;52.194;20.520;2023-07-28T03:39:43;99504.41;;;22.40;60.25
35248;BME280;21380;52.194;20.520;2023-07-28T03:42:09;99496.63;;;22.35;59.97
35248;BME280;21380;52.194;20.520;2023-07-28T03:44:35;99500.09;;;22.35;59.85
35248;BME280;21380;52.194;20.520;2023-07-28T03:47:03;99490.53;;;22.33;60.06
35248;BME280;21380;52.194;20.520;2023-07-28T03:49:29;99481.75;;;22.34;59.94
35248;BME280;21380;52.194;20.520;2023-07-28T03:51:55;99502.56;;;22.43;60.00
35248;BME280;21380;52.194;20.520;2023-07-28T03:54:21;99496.50;;;22.41;59.85
35248;BME280;21380;52.194;20.520;2023-07-28T03:56:47;99506.94;;;22.44;60.11
35248;BME280;21380;52.194;20.520;2023-07-28T03:59:13;99486.06;;;22.37;60.06
35248;BME280;21380;52.194;20.520;2023-07-28T04:01:39;99499.09;;;22.43;59.85
35248;BME280;21380;52.194;20.520;2023-07-28T04:04:05;99479.25;;;22.28;59.72
35248;BME280;21380;52.194;20.520;2023-07-28T04:06:46;99501.69;;;22.44;59.73
35248;BME280;21380;52.194;20.520;2023-07-28T04:09:14;99509.56;;;22.44;59.64
35248;BME280;21380;52.194;20.520;2023-07-28T04:11:41;99501.84;;;22.37;59.73
35248;BME280;21380;52.194;20.520;2023-07-28T04:14:07;99507.81;;;22.45;59.75
35248;BME280;21380;52.194;20.520;2023-07-28T04:16:33;99499.09;;;22.43;60.12
35248;BME280;21380;52.194;20.520;2023-07-28T04:18:59;99479.13;;;22.34;60.02
35248;BME280;21380;52.194;20.520;2023-07-28T04:21:25;99477.38;;;22.33;60.11
35248;BME280;21380;52.194;20.520;2023-07-28T04:23:51;99486.78;;;22.45;59.85
35248;BME280;21380;52.194;20.520;2023-07-28T04:26:17;99484.16;;;22.45;59.80
35248;BME280;21380;52.194;20.520;2023-07-28T04:28:44;99490.28;;;22.45;60.03
35248;BME280;21380;52.194;20.520;2023-07-28T04:31:10;99491.16;;;22.44;60.02
35248;BME280;21380;52.194;20.520;2023-07-28T04:33:36;99489.44;;;22.43;59.86
35248;BME280;21380;52.194;20.520;2023-07-28T04:36:05;99478.94;;;22.43;60.04
35248;BME280;21380;52.194;20.520;2023-07-28T04:38:31;99474.56;;;22.44;59.79
35248;BME280;21380;52.194;20.520;2023-07-28T04:40:57;99469.31;;;22.44;59.96
35248;BME280;21380;52.194;20.520;2023-07-28T04:43:23;99464.00;;;22.45;60.14
35248;BME280;21380;52.194;20.520;2023-07-28T04:45:48;99447.47;;;22.40;59.71
35248;BME280;21380;52.194;20.520;2023-07-28T04:48:14;99457.91;;;22.45;60.24
35248;BME280;21380;52.194;20.520;2023-07-28T04:50:40;99451.06;;;22.36;60.01
35248;BME280;21380;52.194;20.520;2023-07-28T04:53:06;99458.94;;;22.38;59.92
35248;BME280;21380;52.194;20.520;2023-07-28T04:55:32;99459.75;;;22.40;59.85
35248;BME280;21380;52.194;20.520;2023-07-28T04:57:58;99472.72;;;22.46;60.01
35248;BME280;21380;52.194;20.520;2023-07-28T05:00:23;99466.72;;;22.42;60.19
35248;BME280;21380;52.194;20.520;2023-07-28T05:02:49;99457.09;;;22.40;60.22
35248;BME280;21380;52.194;20.520;2023-07-28T05:05:15;99464.00;;;22.45;59.88
35248;BME280;21380;52.194;20.520;2023-07-28T05:07:41;99458.00;;;22.40;60.22
35248;BME280;21380;52.194;20.520;2023-07-28T05:10:07;99464.00;;;22.45;59.89
35248;BME280;21380;52.194;20.520;2023-07-28T05:12:34;99464.00;;;22.45;60.31
35248;BME280;21380;52.194;20.520;2023-07-28T05:15:00;99446.69;;;22.35;59.70
35248;BME280;21380;52.194;20.520;2023-07-28T05:17:26;99451.91;;;22.38;60.25
35248;BME280;21380;52.194;20.520;2023-07-28T05:19:52;99442.28;;;22.37;60.03
35248;BME280;21380;52.194;20.520;2023-07-28T05:22:18;99448.38;;;22.39;60.13
35248;BME280;21380;52.194;20.520;2023-07-28T05:24:44;99461.38;;;22.45;60.34
35248;BME280;21380;52.194;20.520;2023-07-28T05:27:11;99453.69;;;22.38;60.14
35248;BME280;21380;52.194;20.520;2023-07-28T05:29:37;99463.09;;;22.46;59.68
35248;BME280;21380;52.194;20.520;2023-07-28T05:32:03;99453.59;;;22.41;59.87
35248;BME280;21380;52.194;20.520;2023-07-28T05:34:29;99454.38;;;22.44;59.79
35248;BME280;21380;52.194;20.520;2023-07-28T05:36:55;99444.81;;;22.42;60.02
35248;BME280;21380;52.194;20.520;2023-07-28T05:39:21;99456.97;;;22.47;60.22
35248;BME280;21380;52.194;20.520;2023-07-28T05:41:47;99430.88;;;22.38;59.85
35248;BME280;21380;52.194;20.520;2023-07-28T05:44:14;99449.06;;;22.47;60.19
35248;BME280;21380;52.194;20.520;2023-07-28T05:46:40;99448.22;;;22.45;60.29
35248;BME280;21380;52.194;20.520;2023-07-28T05:49:06;99453.41;;;22.48;60.07
35248;BME280;21380;52.194;20.520;2023-07-28T05:51:32;99454.31;;;22.47;60.39
35248;BME280;21380;52.194;20.520;2023-07-28T05:53:57;99452.59;;;22.46;60.18
35248;BME280;21380;52.194;20.520;2023-07-28T05:56:23;99471.00;;;21.16;64.32
35248;BME280;21380;52.194;20.520;2023-07-28T05:58:50;99463.78;;;20.78;66.30
35248;BME280;21380;52.194;20.520;2023-07-28T06:01:16;99468.03;;;20.86;65.82
35248;BME280;21380;52.194;20.520;2023-07-28T06:03:43;99454.53;;;21.10;64.72
35248;BME280;21380;52.194;20.520;2023-07-28T06:06:09;99465.34;;;21.38;64.13
35248;BME280;21380;52.194;20.520;2023-07-28T06:08:34;99468.59;;;21.51;63.49
35248;BME280;21380;52.194;20.520;2023-07-28T06:11:03;99458.84;;;21.59;62.55
35248;BME280;21380;52.194;20.520;2023-07-28T06:13:31;99460.41;;;21.68;62.17
35248;BME280;21380;52.194;20.520;2023-07-28T06:15:57;99463.78;;;21.73;62.01
35248;BME280;21380;52.194;20.520;2023-07-28T06:18:24;99474.13;;;21.82;61.64
35248;BME280;21380;52.194;20.520;2023-07-28T06:20:50;99463.59;;;21.84;61.68
35248;BME280;21380;52.194;20.520;2023-07-28T06:23:16;99459.94;;;21.90;61.29
35248;BME280;21380;52.194;20.520;2023-07-28T06:25:42;99463.38;;;21.93;61.37
35248;BME280;21380;52.194;20.520;2023-07-28T06:28:11;99454.59;;;21.94;61.52
35248;BME280;21380;52.194;20.520;2023-07-28T06:30:38;99448.56;;;21.91;61.36
35248;BME280;21380;52.194;20.520;2023-07-28T06:33:07;99453.63;;;22.00;61.18
35248;BME280;21380;52.194;20.520;2023-07-28T06:35:33;99463.19;;;22.02;61.52
35248;BME280;21380;52.194;20.520;2023-07-28T06:38:00;99465.78;;;22.04;61.35
35248;BME280;21380;52.194;20.520;2023-07-28T06:40:26;99464.94;;;22.03;61.33
35248;BME280;21380;52.194;20.520;2023-07-28T06:42:52;99457.84;;;22.06;61.10
35248;BME280;21380;52.194;20.520;2023-07-28T06:45:19;99470.06;;;22.08;61.29
35248;BME280;21380;52.194;20.520;2023-07-28T06:47:45;99467.44;;;22.08;61.46
35248;BME280;21380;52.194;20.520;2023-07-28T06:50:11;99471.75;;;22.11;61.59
35248;BME280;21380;52.194;20.520;2023-07-28T06:52:37;99477.88;;;22.11;61.26
35248;BME280;21380;52.194;20.520;2023-07-28T06:55:04;99464.94;;;22.03;61.75
35248;BME280;21380;52.194;20.520;2023-07-28T06:57:30;99478.69;;;22.13;61.99
35248;BME280;21380;52.194;20.520;2023-07-28T07:00:00;99483.06;;;22.14;62.23
35248;BME280;21380;52.194;20.520;2023-07-28T07:02:26;99470.81;;;22.15;62.26
35248;BME280;21380;52.194;20.520;2023-07-28T07:04:52;99462.16;;;22.10;62.36
35248;BME280;21380;52.194;20.520;2023-07-28T07:07:18;99453.41;;;22.09;62.09
35248;BME280;21380;52.194;20.520;2023-07-28T07:09:44;99450.81;;;22.08;62.25
35248;BME280;21380;52.194;20.520;2023-07-28T07:12:10;99458.63;;;22.11;62.17
35248;BME280;21380;52.194;20.520;2023-07-28T07:14:36;99456.78;;;22.14;62.29
35248;BME280;21380;52.194;20.520;2023-07-28T07:17:02;99455.03;;;22.15;62.16
35248;BME280;21380;52.194;20.520;2023-07-28T07:19:28;99448.00;;;22.15;62.20
35248;BME280;21380;52.194;20.520;2023-07-28T07:21:55;99460.16;;;22.19;62.11
35248;BME280;21380;52.194;20.520;2023-07-28T07:24:21;99454.91;;;22.19;62.39
35248;BME280;21380;52.194;20.520;2023-07-28T07:26:47;99455.81;;;22.20;62.40
35248;BME280;21380;52.194;20.520;2023-07-28T07:29:13;99456.66;;;22.21;62.27
35248;BME280;21380;52.194;20.520;2023-07-28T07:31:39;99437.56;;;22.14;62.63
35248;BME280;21380;52.194;20.520;2023-07-28T07:34:05;99451.41;;;22.21;62.56
35248;BME280;21380;52.194;20.520;2023-07-28T07:36:31;99440.09;;;22.18;62.38
35248;BME280;21380;52.194;20.520;2023-07-28T07:38:57;99453.13;;;22.22;62.70
35248;BME280;21380;52.194;20.520;2023-07-28T07:41:23;99451.41;;;22.21;62.44
35248;BME280;21380;52.194;20.520;2023-07-28T07:43:53;99451.44;;;22.19;62.72
35248;BME280;21380;52.194;20.520;2023-07-28T07:46:19;99441.88;;;22.16;62.80
35248;BME280;21380;52.194;20.520;2023-07-28T07:48:46;99456.59;;;22.24;63.05
35248;BME280;21380;52.194;20.520;2023-07-28T07:51:12;99451.41;;;22.21;62.96
35248;BME280;21380;52.194;20.520;2023-07-28T07:53:38;99460.97;;;22.25;62.94
35248;BME280;21380;52.194;20.520;2023-07-28T07:56:04;99463.59;;;22.25;62.87
35248;BME280;21380;52.194;20.520;2023-07-28T07:58:31;99450.59;;;22.18;63.14
35248;BME280;21380;52.194;20.520;2023-07-28T08:00:57;99467.03;;;22.27;63.09
35248;BME280;21380;52.194;20.520;2023-07-28T08:03:23;99454.78;;;22.26;62.93
35248;BME280;21380;52.194;20.520;2023-07-28T08:05:50;99450.47;;;22.23;63.24
35248;BME280;21380;52.194;20.520;2023-07-28T08:08:16;99442.63;;;22.22;63.02
35248;BME280;21380;52.194;20.520;2023-07-28T08:10:43;99442.56;;;22.25;62.93
35248;BME280;21380;52.194;20.520;2023-07-28T08:13:09;99446.88;;;22.27;63.25
35248;BME280;21380;52.194;20.520;2023-07-28T08:15:36;99439.00;;;22.26;63.59
35248;BME280;21380;52.194;20.520;2023-07-28T08:18:02;99443.34;;;22.28;63.67
35248;BME280;21380;52.194;20.520;2023-07-28T08:20:27;99434.69;;;22.23;64.10
35248;BME280;21380;52.194;20.520;2023-07-28T08:22:54;99436.44;;;22.24;63.95
35248;BME280;21380;52.194;20.520;2023-07-28T08:25:21;99419.97;;;22.17;63.91
35248;BME280;21380;52.194;20.520;2023-07-28T08:27:48;99435.59;;;22.24;63.79
35248;BME280;21380;52.194;20.520;2023-07-28T08:30:14;99447.66;;;22.31;63.73
35248;BME280;21380;52.194;20.520;2023-07-28T08:32:42;99436.44;;;22.24;64.01
35248;BME280;21380;52.194;20.520;2023-07-28T08:35:08;99426.91;;;22.20;63.98
35248;BME280;21380;52.194;20.520;2023-07-28T08:37:34;99436.25;;;22.32;63.87
35248;BME280;21380;52.194;20.520;2023-07-28T08:40:00;99439.75;;;22.32;63.87
35248;BME280;21380;52.194;20.520;2023-07-28T08:42:29;99432.78;;;22.31;64.04
35248;BME280;21380;52.194;20.520;2023-07-28T08:44:55;99420.47;;;22.32;63.85
35248;BME280;21380;52.194;20.520;2023-07-28T08:47:21;99416.25;;;22.26;64.35
35248;BME280;21380;52.194;20.520;2023-07-28T08:49:47;99414.41;;;22.30;63.86
35248;BME280;21380;52.194;20.520;2023-07-28T08:52:16;99424.84;;;22.33;63.98
35248;BME280;21380;52.194;20.520;2023-07-28T08:54:43;99442.34;;;22.34;64.31
35248;BME280;21380;52.194;20.520;2023-07-28T08:57:09;99410.13;;;22.26;64.26
35248;BME280;21380;52.194;20.520;2023-07-28T08:59:35;99436.19;;;22.35;64.45
35248;BME280;21380;52.194;20.520;2023-07-28T09:02:03;99437.09;;;22.34;63.84
35248;BME280;21380;52.194;20.520;2023-07-28T09:04:31;99427.44;;;22.34;63.84
35248;BME280;21380;52.194;20.520;2023-07-28T09:06:57;99425.75;;;22.32;63.71
35248;BME280;21380;52.194;20.520;2023-07-28T09:09:23;99421.28;;;22.35;63.45
35248;BME280;21380;52.194;20.520;2023-07-28T09:11:51;99404.06;;;22.22;63.49
35248;BME280;21380;52.194;20.520;2023-07-28T09:14:20;99418.75;;;22.32;63.46
35248;BME280;21380;52.194;20.520;2023-07-28T09:16:47;99424.78;;;22.36;64.17
35248;BME280;21380;52.194;20.520;2023-07-28T09:19:13;99422.16;;;22.36;64.00
35248;BME280;21380;52.194;20.520;2023-07-28T09:21:42;99417.06;;;22.28;64.48
35248;BME280;21380;52.194;20.520;2023-07-28T09:24:10;99413.47;;;22.32;64.51
35248;BME280;21380;52.194;20.520;2023-07-28T09:26:47;99419.53;;;22.36;64.60
35248;BME280;21380;52.194;20.520;2023-07-28T09:29:20;99422.16;;;22.36;64.50
35248;BME280;21380;52.194;20.520;2023-07-28T09:31:48;99411.66;;;22.34;64.50
35248;BME280;21380;52.194;20.520;2023-07-28T09:34:24;99413.47;;;22.32;64.99
35248;BME280;21380;52.194;20.520;2023-07-28T09:36:59;99400.44;;;22.28;64.87
35248;BME280;21380;52.194;20.520;2023-07-28T09:39:26;99414.28;;;22.36;64.89
35248;BME280;21380;52.194;20.520;2023-07-28T09:41:54;99414.34;;;22.33;64.77
35248;BME280;21380;52.194;20.520;2023-07-28T09:44:24;99415.22;;;22.33;64.75
35248;BME280;21380;52.194;20.520;2023-07-28T09:46:54;99423.00;;;22.38;64.56
35248;BME280;21380;52.194;20.520;2023-07-28T09:49:27;99430.03;;;22.38;64.85
35248;BME280;21380;52.194;20.520;2023-07-28T09:51:57;99404.75;;;22.30;64.99
35248;BME280;21380;52.194;20.520;2023-07-28T09:54:28;99414.25;;;22.38;65.02
35248;BME280;21380;52.194;20.520;2023-07-28T09:56:56;99414.25;;;22.38;65.45
35248;BME280;21380;52.194;20.520;2023-07-28T09:59:29;99407.25;;;22.37;65.23
35248;BME280;21380;52.194;20.520;2023-07-28T10:01:58;99412.50;;;22.38;65.59
35248;BME280;21380;52.194;20.520;2023-07-28T10:04:24;99409.84;;;22.38;65.69
35248;BME280;21380;52.194;20.520;2023-07-28T10:06:54;99399.44;;;22.33;65.46
35248;BME280;21380;52.194;20.520;2023-07-28T10:09:25;99407.28;;;22.35;65.52
35248;BME280;21380;52.194;20.520;2023-07-28T10:11:56;99405.13;;;22.15;67.97
35248;BME280;21380;52.194;20.520;2023-07-28T10:14:34;99394.50;;;21.40;82.47
35248;BME280;21380;52.194;20.520;2023-07-28T10:17:03;99403.47;;;21.28;84.31
35248;BME280;21380;52.194;20.520;2023-07-28T10:19:36;99396.38;;;21.33;81.86
35248;BME280;21380;52.194;20.520;2023-07-28T10:22:10;99397.50;;;21.63;78.35
35248;BME280;21380;52.194;20.520;2023-07-28T10:24:56;99400.41;;;21.92;82.25
35248;BME280;21380;52.194;20.520;2023-07-28T10:27:30;99392.00;;;22.15;82.32
35248;BME280;21380;52.194;20.520;2023-07-28T10:29:58;99396.03;;;22.30;81.51
35248;BME280;21380;52.194;20.520;2023-07-28T10:37:39;99380.03;;;22.75;79.61
35248;BME280;21380;52.194;20.520;2023-07-28T10:42:54;99373.41;;;22.93;78.43
35248;BME280;21380;52.194;20.520;2023-07-28T10:45:26;99382.00;;;23.00;78.26
35248;BME280;21380;52.194;20.520;2023-07-28T10:47:54;99374.81;;;23.07;77.07
35248;BME280;21380;52.194;20.520;2023-07-28T10:50:28;99374.56;;;23.14;77.09
35248;BME280;21380;52.194;20.520;2023-07-28T10:52:54;99361.47;;;23.13;76.49
35248;BME280;21380;52.194;20.520;2023-07-28T10:55:21;99380.47;;;23.24;76.24
35248;BME280;21380;52.194;20.520;2023-07-28T10:57:50;99381.25;;;23.28;75.61
35248;BME280;21380;52.194;20.520;2023-07-28T11:00:19;99390.78;;;23.32;75.80
35248;BME280;21380;52.194;20.520;2023-07-28T11:02:49;99369.72;;;23.32;75.37
35248;BME280;21380;52.194;20.520;2023-07-28T11:05:22;99380.97;;;23.39;74.98
35248;BME280;21380;52.194;20.520;2023-07-28T11:07:50;99366.91;;;23.38;74.88
35248;BME280;21380;52.194;20.520;2023-07-28T11:10:16;99371.09;;;23.45;74.53
35248;BME280;21380;52.194;20.520;2023-07-28T11:12:44;99383.31;;;23.48;73.99
35248;BME280;21380;52.194;20.520;2023-07-28T11:15:12;99371.06;;;23.47;74.29
35248;BME280;21380;52.194;20.520;2023-07-28T11:17:40;99382.31;;;23.52;73.61
35248;BME280;21380;52.194;20.520;2023-07-28T11:20:20;99373.44;;;23.55;73.54
35248;BME280;21380;52.194;20.520;2023-07-28T11:25:17;99367.28;;;23.56;73.40
35248;BME280;21380;52.194;20.520;2023-07-28T11:27:45;99375.97;;;23.59;73.52
35248;BME280;21380;52.194;20.520;2023-07-28T11:30:15;99360.34;;;23.53;73.05
35248;BME280;21380;52.194;20.520;2023-07-28T11:32:46;99378.53;;;23.62;73.03
35248;BME280;21380;52.194;20.520;2023-07-28T11:35:16;99378.47;;;23.64;72.57
35248;BME280;21380;52.194;20.520;2023-07-28T11:37:45;99370.56;;;23.64;72.80
35248;BME280;21380;52.194;20.520;2023-07-28T11:40:11;99373.16;;;23.66;72.50
35248;BME280;21380;52.194;20.520;2023-07-28T11:42:40;99370.47;;;23.67;72.33
35248;BME280;21380;52.194;20.520;2023-07-28T11:45:10;99370.47;;;23.67;72.25
35248;BME280;21380;52.194;20.520;2023-07-28T11:47:36;99364.22;;;23.70;72.29
35248;BME280;21380;52.194;20.520;2023-07-28T11:50:03;99367.69;;;23.72;72.26
35248;BME280;21380;52.194;20.520;2023-07-28T11:52:33;99372.97;;;23.72;71.99
35248;BME280;21380;52.194;20.520;2023-07-28T11:55:05;99372.19;;;23.68;71.91
35248;BME280;21380;52.194;20.520;2023-07-28T11:57:35;99378.16;;;23.73;71.67
35248;BME280;21380;52.194;20.520;2023-07-28T12:00:01;99368.72;;;23.66;71.52
35248;BME280;21380;52.194;20.520;2023-07-28T12:02:31;99378.16;;;23.73;71.66
35248;BME280;21380;52.194;20.520;2023-07-28T12:04:57;99382.53;;;23.74;71.67
35248;BME280;21380;52.194;20.520;2023-07-28T12:07:47;99384.31;;;23.74;71.70
35248;BME280;21380;52.194;20.520;2023-07-28T12:10:14;99384.44;;;23.69;71.61
35248;BME280;21380;52.194;20.520;2023-07-28T12:12:45;99379.19;;;23.69;71.49
35248;BME280;21380;52.194;20.520;2023-07-28T12:15:25;99373.16;;;23.66;71.67
35248;BME280;21380;52.194;20.520;2023-07-28T12:18:11;99378.28;;;23.70;71.58
35248;BME280;21380;52.194;20.520;2023-07-28T12:20:45;99375.59;;;23.72;71.44
35248;BME280;21380;52.194;20.520;2023-07-28T12:23:20;99363.50;;;23.64;71.51
35248;BME280;21380;52.194;20.520;2023-07-28T12:25:47;99382.63;;;23.71;71.36
35248;BME280;21380;52.194;20.520;2023-07-28T12:28:14;99390.56;;;23.70;71.27
35248;BME280;21380;52.194;20.520;2023-07-28T12:30:40;99381.00;;;23.67;71.35
35248;BME280;21380;52.194;20.520;2023-07-28T12:33:06;99389.00;;;23.64;71.48
35248;BME280;21380;52.194;20.520;2023-07-28T12:35:33;99400.28;;;23.68;71.46
35248;BME280;21380;52.194;20.520;2023-07-28T12:38:06;99392.41;;;23.66;71.34
35248;BME280;21380;52.194;20.520;2023-07-28T12:40:33;99395.06;;;23.66;71.32
35248;BME280;21380;52.194;20.520;2023-07-28T12:43:01;99386.44;;;23.61;71.25
35248;BME280;21380;52.194;20.520;2023-07-28T12:45:28;99398.63;;;23.65;71.00
35248;BME280;21380;52.194;20.520;2023-07-28T12:47:55;99387.34;;;23.60;71.26
35248;BME280;21380;52.194;20.520;2023-07-28T12:50:22;99398.63;;;23.65;71.42
35248;BME280;21380;52.194;20.520;2023-07-28T12:52:49;99389.97;;;23.60;71.06
35248;BME280;21380;52.194;20.520;2023-07-28T12:55:15;99379.53;;;23.57;71.35
35248;BME280;21380;52.194;20.520;2023-07-28T12:57:42;99394.31;;;23.62;71.25
35248;BME280;21380;52.194;20.520;2023-07-28T13:00:08;99392.59;;;23.60;71.42
35248;BME280;21380;52.194;20.520;2023-07-28T13:02:41;99378.72;;;23.55;71.31
35248;BME280;21380;52.194;20.520;2023-07-28T13:05:08;99392.59;;;23.61;70.94
35248;BME280;21380;52.194;20.520;2023-07-28T13:07:37;99375.09;;;23.59;71.21